Time;durP1;ratioP1;P1;durP2;ratioP2;P2;SDS_P1;SDS_P2;PMS_P1;PMS_P2;Temp;Humidity;BMP_temperature;BMP_pressure;BME280_temperature;BME280_humidity;BME280_pressure;Samples;Min_cycle;Max_cycle;Signal;HPM_P1;HPM_P2
2021/05/19 00:00:20;;;;;;;4.10;1.92;;;;;;;12.72;59.88;99299.34;4423629;32;20066;-95
2021/05/19 00:02:46;;;;;;;5.18;1.52;;;;;;;12.96;59.89;99293.88;4421736;32;20120;-96
2021/05/19 00:05:11;;;;;;;7.80;1.90;;;;;;;12.74;59.89;99291.44;4421929;32;20136;-96
2021/05/19 00:07:38;;;;;;;2.22;1.50;;;;;;;12.78;59.88;99280.81;4410543;32;20144;-96
2021/05/19 00:10:09;;;;;;;1.73;1.10;;;;;;;12.77;59.88;99286.91;4410372;32;20074;-96
2021/05/19 00:12:35;;;;;;;3.15;1.12;;;;;;;12.86;59.89;99273.44;4422853;32;20070;-96
2021/05/19 00:15:01;;;;;;;3.08;1.08;;;;;;;12.83;59.88;99278.81;4422747;32;20081;-96
2021/05/19 00:17:27;;;;;;;4.40;1.40;;;;;;;12.57;59.88;99285.28;4397589;32;20070;-96
2021/05/19 00:19:52;;;;;;;2.05;1.20;;;;;;;12.64;59.87;99274.53;4422903;32;20175;-96
2021/05/19 00:22:18;;;;;;;1.75;1.23;;;;;;;12.57;59.88;99272.22;4422392;32;20090;-96
2021/05/19 00:24:43;;;;;;;2.12;1.33;;;;;;;12.59;59.88;99266.94;4410876;32;20121;-90
2021/05/19 00:27:09;;;;;;;3.33;1.23;;;;;;;12.54;59.87;99269.75;4424147;32;20081;-87
2021/05/19 00:29:34;;;;;;;0.95;0.90;;;;;;;12.57;59.87;99260.94;4411531;32;20112;-91
2021/05/19 00:32:00;;;;;;;5.07;1.30;;;;;;;12.37;59.87;99267.09;4424164;32;20070;-88
2021/05/19 00:34:25;;;;;;;3.05;1.33;;;;;;;12.46;59.87;99269.25;4398905;32;20066;-88
2021/05/19 00:36:54;;;;;;;2.33;1.27;;;;;;;12.17;59.85;99261.97;4425027;32;20062;-88
2021/05/19 00:39:19;;;;;;;3.17;1.30;;;;;;;12.30;59.86;99268.28;4424773;32;20136;-96
2021/05/19 00:41:45;;;;;;;3.47;1.50;;;;;;;12.18;59.85;99268.87;4436972;32;20083;-96
2021/05/19 00:44:12;;;;;;;2.85;1.30;;;;;;;12.06;59.85;99269.41;4398862;32;20094;-96
2021/05/19 00:46:38;;;;;;;1.92;1.02;;;;;;;11.83;59.83;99276.53;4424234;32;20124;-96
2021/05/19 00:49:03;;;;;;;3.65;1.25;;;;;;;12.05;59.84;99281.59;4411344;32;20075;-96
2021/05/19 00:51:29;;;;;;;4.72;1.35;;;;;;;11.96;59.84;99292.47;4412083;32;20097;-95
2021/05/19 00:53:56;;;;;;;2.10;1.33;;;;;;;11.82;59.82;99287.00;4425804;32;20102;-89
2021/05/19 00:56:25;;;;;;;1.87;1.35;;;;;;;12.03;59.84;99280.00;4411323;32;20125;-96
2021/05/19 00:58:51;;;;;;;5.22;1.27;;;;;;;11.80;59.83;99281.88;4399184;32;20074;-96
2021/05/19 01:01:17;;;;;;;1.55;1.10;;;;;;;11.99;59.84;99277.53;4386479;32;20129;-96
2021/05/19 01:03:42;;;;;;;2.85;1.33;;;;;;;12.03;59.84;99275.63;4386566;32;20492;-96
2021/05/19 01:06:10;;;;;;;3.53;1.35;;;;;;;12.14;59.85;99285.59;4399313;32;20128;-96
2021/05/19 01:11:20;;;;;;;1.52;1.15;;;;;;;11.94;59.84;99292.53;4416326;32;20152;-94
2021/05/19 01:13:46;;;;;;;2.33;1.10;;;;;;;12.09;59.85;99295.38;4411086;32;21999;-95
2021/05/19 01:16:12;;;;;;;2.78;1.40;;;;;;;11.91;59.84;99295.28;4410833;32;20146;-95
2021/05/19 01:18:40;;;;;;;4.75;1.55;;;;;;;11.95;59.84;99291.63;4397958;32;20134;-95
2021/05/19 01:21:05;;;;;;;1.90;1.30;;;;;;;11.73;59.83;99290.00;4386286;32;20141;-95
2021/05/19 01:23:31;;;;;;;3.05;1.45;;;;;;;12.12;59.85;99284.81;4385748;32;20098;-95
2021/05/19 01:26:01;;;;;;;1.60;1.30;;;;;;;11.86;59.84;99292.03;4391836;32;20136;-96
2021/05/19 01:28:29;;;;;;;2.37;1.20;;;;;;;11.91;59.84;99287.47;4420022;32;20082;-96
2021/05/19 01:30:55;;;;;;;2.40;1.40;;;;;;;11.79;59.83;99289.75;4390261;32;20133;-95
2021/05/19 01:33:20;;;;;;;2.33;1.48;;;;;;;11.74;59.82;99286.47;4385655;32;20098;-96
2021/05/19 01:35:46;;;;;;;2.33;1.40;;;;;;;11.85;59.83;99287.75;4386322;32;20154;-95
2021/05/19 01:38:13;;;;;;;3.65;1.52;;;;;;;11.95;59.83;99289.00;4386018;32;20132;-96
2021/05/19 01:48:15;;;;;;;3.37;1.52;;;;;;;11.69;59.83;99287.53;4425664;32;20077;-96
2021/05/19 01:51:46;;;;;;;3.65;1.55;;;;;;;11.60;59.81;99287.09;4407191;32;20106;-96
2021/05/19 01:54:30;;;;;;;2.65;1.70;;;;;;;11.75;59.83;99289.03;4423185;32;20070;-96
2021/05/19 01:57:01;;;;;;;4.80;1.80;;;;;;;11.56;59.82;99290.72;4398755;32;20054;-96
2021/05/19 01:59:31;;;;;;;3.85;1.95;;;;;;;11.57;59.82;99292.41;4421521;32;20066;-96
2021/05/19 02:02:00;;;;;;;6.60;2.10;;;;;;;11.50;59.81;99281.41;4420396;32;20120;-96
2021/05/19 02:04:53;;;;;;;3.60;2.00;;;;;;;11.51;59.81;99285.72;4395304;32;20074;-96
2021/05/19 02:07:38;;;;;;;4.78;2.00;;;;;;;11.37;59.80;99282.88;4419513;32;20085;-96
2021/05/19 02:10:42;;;;;;;1.83;1.45;;;;;;;11.42;59.80;99280.91;4420591;32;20207;-96
2021/05/19 02:13:59;;;;;;;3.17;1.90;;;;;;;11.44;59.80;99291.28;4423188;32;20058;-96
2021/05/19 02:16:57;;;;;;;7.10;1.95;;;;;;;11.38;59.81;99295.84;4414605;32;20058;-96
2021/05/19 02:19:40;;;;;;;3.50;1.70;;;;;;;11.47;59.81;99297.19;4422957;32;20046;-96
2021/05/19 02:22:28;;;;;;;3.78;2.05;;;;;;;11.54;59.82;99285.59;4422351;32;20054;-96
2021/05/19 02:24:55;;;;;;;2.47;1.60;;;;;;;11.23;59.80;99293.88;4418723;32;20073;-96
2021/05/19 02:27:20;;;;;;;2.97;2.03;;;;;;;11.26;59.80;99288.53;4393284;32;20071;-96
2021/05/19 02:30:00;;;;;;;5.60;1.75;;;;;;;11.30;59.81;99284.87;4394159;32;20149;-96
2021/05/19 02:33:02;;;;;;;3.70;1.90;;;;;;;11.37;59.81;99286.34;4421815;32;20102;-96
2021/05/19 02:39:48;;;;;;;1.90;1.60;;;;;;;11.64;59.82;99273.88;4425505;32;20109;-92
2021/05/19 02:42:40;;;;;;;2.90;1.40;;;;;;;11.28;59.80;99284.09;4425306;32;20069;-96
2021/05/19 03:15:43;;;;;;;3.28;1.40;;;;;;;12.10;59.85;99277.06;4454012;32;20097;-95
2021/05/19 03:18:10;;;;;;;1.98;1.55;;;;;;;12.04;59.84;99281.69;4451656;32;31478;-87
2021/05/19 03:20:36;;;;;;;2.40;1.17;;;;;;;12.14;59.85;99281.22;4458198;32;20053;-86
2021/05/19 03:23:01;;;;;;;2.00;1.40;;;;;;;12.04;59.84;99290.34;4470490;32;20124;-87
2021/05/19 03:25:28;;;;;;;2.50;1.30;;;;;;;12.23;59.86;99285.16;4471189;32;20113;-86
2021/05/19 03:27:54;;;;;;;3.78;1.30;;;;;;;12.10;59.84;99289.25;4471140;32;20075;-86
2021/05/19 03:30:19;;;;;;;3.95;1.00;;;;;;;12.14;59.85;99289.03;4471009;32;20077;-91
2021/05/19 03:32:45;;;;;;;1.80;1.30;;;;;;;12.37;59.86;99290.59;4470510;32;20108;-96
2021/05/19 03:35:11;;;;;;;2.25;1.25;;;;;;;12.43;59.86;99277.25;4453062;32;20101;-96
2021/05/19 03:37:37;;;;;;;3.05;1.37;;;;;;;12.43;59.86;99284.22;4456058;32;20049;-96
2021/05/19 03:40:05;;;;;;;4.25;1.40;;;;;;;12.52;59.87;99289.84;4444682;32;20091;-87
2021/05/19 03:42:30;;;;;;;2.22;1.65;;;;;;;12.66;59.88;99283.13;4466894;32;20092;-95
2021/05/19 03:44:56;;;;;;;3.50;1.65;;;;;;;12.60;59.88;99292.13;4461292;32;20105;-96
2021/05/19 03:47:21;;;;;;;6.87;3.33;;;;;;;12.71;59.88;99294.19;4444207;32;20104;-96
2021/05/19 03:49:49;;;;;;;1.98;1.25;;;;;;;12.82;59.89;99291.94;4444531;32;20101;-95
2021/05/19 03:52:14;;;;;;;1.73;1.42;;;;;;;12.89;59.88;99288.09;4468952;32;20097;-88
2021/05/19 03:54:40;;;;;;;4.22;1.30;;;;;;;12.99;59.90;99293.72;4458005;32;20103;-87
2021/05/19 03:57:06;;;;;;;2.75;1.60;;;;;;;13.16;59.90;99283.28;4456734;32;20088;-86
2021/05/19 03:59:31;;;;;;;3.67;1.60;;;;;;;13.15;59.90;99289.44;4457855;32;20066;-86
2021/05/19 04:01:57;;;;;;;3.40;1.62;;;;;;;13.35;59.92;99291.06;4444057;32;20109;-91
2021/05/19 04:07:11;;;;;;;2.15;1.42;;;;;;;13.61;59.93;99295.81;4452140;32;20144;-94
2021/05/19 04:09:40;;;;;;;2.53;1.55;;;;;;;13.64;59.92;99297.44;4416745;32;20077;-95
2021/05/19 04:12:06;;;;;;;2.15;1.42;;;;;;;13.69;59.93;99287.56;4441664;32;20127;-90
2021/05/19 04:14:32;;;;;;;1.87;1.40;;;;;;;13.59;59.93;99297.66;4416506;32;20062;-95
2021/05/19 04:16:58;;;;;;;1.77;1.35;;;;;;;13.73;59.94;99299.59;4442016;32;20099;-90
2021/05/19 04:19:23;;;;;;;3.97;1.60;;;;;;;13.64;59.92;99287.81;4435010;32;20483;-91
2021/05/19 04:21:49;;;;;;;3.83;1.73;;;;;;;13.75;59.93;99290.72;4417166;32;20145;-95
2021/05/19 04:24:15;;;;;;;2.45;1.48;;;;;;;13.70;59.93;99290.09;4426923;32;20204;-93
2021/05/19 04:26:40;;;;;;;2.03;1.45;;;;;;;13.65;59.92;99284.28;4413668;32;20140;-94
2021/05/19 04:29:06;;;;;;;2.40;1.62;;;;;;;13.77;59.93;99286.25;4415329;32;20089;-94
2021/05/19 04:31:31;;;;;;;2.15;1.27;;;;;;;13.82;59.94;99289.47;4434592;32;26976;-96
2021/05/19 04:33:57;;;;;;;2.87;1.30;;;;;;;13.73;59.93;99289.12;4408204;32;20074;-96
2021/05/19 04:36:23;;;;;;;3.60;1.50;;;;;;;13.87;59.93;99288.38;4435696;32;20149;-96
2021/05/19 04:38:48;;;;;;;1.98;1.40;;;;;;;14.13;59.96;99291.28;4424621;32;20089;-96
2021/05/19 04:41:14;;;;;;;2.60;1.37;;;;;;;14.23;59.96;99285.59;4413760;32;20066;-94
2021/05/19 04:43:39;;;;;;;3.30;1.70;;;;;;;14.40;59.97;99290.72;4428365;32;20105;-96
2021/05/19 04:46:05;;;;;;;3.80;1.40;;;;;;;14.56;59.98;99283.75;4439499;32;20116;-96
2021/05/19 04:48:31;;;;;;;2.80;1.30;;;;;;;14.74;59.99;99285.34;4428044;32;20109;-96
2021/05/19 04:50:56;;;;;;;2.60;1.60;;;;;;;14.89;60.00;99280.16;4427607;32;20070;-96
2021/05/19 04:53:22;;;;;;;2.17;1.30;;;;;;;15.16;60.00;99286.44;4441282;32;20085;-96
2021/05/19 04:55:47;;;;;;;3.95;1.50;;;;;;;15.14;60.01;99282.19;4414908;32;20097;-96
2021/05/19 04:58:13;;;;;;;3.33;1.65;;;;;;;15.13;60.01;99275.28;4428711;32;20084;-94
2021/05/19 05:00:38;;;;;;;4.95;1.73;;;;;;;15.18;60.01;99281.12;4441549;32;20074;-95
2021/05/19 05:03:04;;;;;;;1.17;1.05;;;;;;;15.38;60.02;99277.31;4439617;32;20080;-95
2021/05/19 05:05:30;;;;;;;2.50;1.40;;;;;;;15.51;60.03;99276.50;4497472;27;20106;-96
2021/05/19 05:07:56;;;;;;;4.50;1.58;;;;;;;15.60;60.03;99275.97;4412881;32;20062;-94
2021/05/19 05:10:22;;;;;;;2.87;1.52;;;;;;;15.45;60.02;99276.87;4437978;32;20118;-95
2021/05/19 05:12:49;;;;;;;5.40;1.37;;;;;;;15.61;60.03;99279.44;4408894;32;20098;-96
2021/05/19 05:15:15;;;;;;;5.40;1.55;;;;;;;15.72;60.04;99284.06;4415636;32;20156;-94
2021/05/19 05:17:41;;;;;;;2.42;1.52;;;;;;;15.69;60.03;99282.47;4415643;32;20443;-96
2021/05/19 05:20:08;;;;;;;2.50;1.60;;;;;;;15.87;60.05;99280.50;4416651;32;20070;-96
2021/05/19 05:22:34;;;;;;;2.95;1.40;;;;;;;15.94;60.05;99282.66;4429659;32;20131;-96
2021/05/19 05:25:00;;;;;;;2.90;1.70;;;;;;;15.99;60.05;99290.25;4407651;32;20855;-96
2021/05/19 05:27:26;;;;;;;2.58;1.70;;;;;;;16.12;60.06;99287.72;4422744;32;20054;-95
2021/05/19 05:29:51;;;;;;;4.70;1.60;;;;;;;16.16;60.06;99292.66;4433775;32;20069;-96
2021/05/19 05:32:17;;;;;;;4.28;1.67;;;;;;;16.21;60.07;99292.37;4421463;32;20140;-95
2021/05/19 05:34:43;;;;;;;2.95;1.40;;;;;;;16.29;60.07;99295.38;4429881;32;20121;-95
2021/05/19 05:37:09;;;;;;;2.50;1.75;;;;;;;16.00;60.05;99291.91;4431728;32;20096;-94
2021/05/19 05:39:35;;;;;;;4.40;1.50;;;;;;;16.05;60.05;99295.09;4427214;32;20113;-95
2021/05/19 05:42:03;;;;;;;9.38;1.60;;;;;;;16.04;60.05;99295.19;4407400;32;20074;-96
2021/05/19 05:44:29;;;;;;;3.20;1.77;;;;;;;16.20;60.07;99286.28;4435286;32;20076;-96
2021/05/19 05:46:55;;;;;;;3.42;1.48;;;;;;;16.02;60.06;99289.19;4404864;32;20419;-94
2021/05/19 05:49:20;;;;;;;4.50;1.42;;;;;;;16.16;60.07;99287.41;4401619;32;20415;-95
2021/05/19 05:51:47;;;;;;;5.50;1.40;;;;;;;16.28;60.07;99291.87;4401392;32;20385;-96
2021/05/19 05:54:12;;;;;;;1.92;1.37;;;;;;;16.18;60.07;99287.31;4401453;32;20111;-94
2021/05/19 05:56:40;;;;;;;3.37;1.55;;;;;;;16.32;60.08;99299.56;4401086;32;20106;-95
2021/05/19 05:59:06;;;;;;;4.00;1.67;;;;;;;16.41;60.08;99291.97;4400720;32;20506;-95
2021/05/19 06:01:31;;;;;;;2.80;1.70;;;;;;;16.38;60.07;99293.97;4400379;32;20412;-95
2021/05/19 06:03:57;;;;;;;3.83;1.77;;;;;;;16.36;60.07;99298.47;4397373;32;20090;-96
2021/05/19 06:06:22;;;;;;;4.53;1.52;;;;;;;16.22;60.06;99292.28;4385185;32;20163;-94
2021/05/19 06:08:57;;;;;;;6.95;1.87;;;;;;;16.38;60.07;99293.97;4384310;32;20110;-96
2021/05/19 06:11:22;;;;;;;2.30;1.52;;;;;;;16.45;60.07;99298.72;4387617;32;20136;-95
2021/05/19 06:13:48;;;;;;;2.55;1.40;;;;;;;16.37;60.07;99301.00;4385885;32;20142;-96
2021/05/19 06:16:13;;;;;;;4.53;1.50;;;;;;;16.31;60.08;99296.09;4384639;32;20136;-95
2021/05/19 06:18:39;;;;;;;4.32;1.77;;;;;;;16.51;60.08;99300.94;4387027;32;20145;-94
2021/05/19 06:21:06;;;;;;;5.10;1.95;;;;;;;16.52;60.08;99292.13;4383471;32;20171;-96
2021/05/19 06:23:32;;;;;;;2.20;1.48;;;;;;;16.66;60.09;99295.66;4397015;32;20059;-95
2021/05/19 06:25:57;;;;;;;4.03;1.45;;;;;;;16.81;60.10;99290.31;4409164;32;20105;-96
2021/05/19 06:28:23;;;;;;;2.12;1.55;;;;;;;16.95;60.11;99286.78;4385248;32;20117;-96
2021/05/19 06:30:48;;;;;;;2.40;1.50;;;;;;;16.96;60.11;99288.44;4384960;32;20107;-96
2021/05/19 06:33:14;;;;;;;4.15;2.10;;;;;;;16.91;60.10;99281.81;4384119;32;20479;-95
2021/05/19 06:35:39;;;;;;;3.25;1.70;;;;;;;16.90;60.10;99282.75;4396348;32;20155;-95
2021/05/19 06:38:05;;;;;;;3.25;1.45;;;;;;;17.00;60.10;99274.16;4383797;32;20193;-95
2021/05/19 06:40:30;;;;;;;2.60;1.20;;;;;;;16.84;60.10;99278.75;4383993;32;20505;-94
2021/05/19 06:42:57;;;;;;;3.45;1.33;;;;;;;16.91;60.10;99281.81;4383245;32;20102;-96
2021/05/19 06:45:22;;;;;;;5.40;1.80;;;;;;;17.19;60.12;99281.69;4383872;32;20094;-95
2021/05/19 06:47:47;;;;;;;4.70;1.80;;;;;;;17.36;60.13;99289.28;4395670;32;20109;-96
2021/05/19 06:50:13;;;;;;;5.32;2.35;;;;;;;17.38;60.12;99278.66;4383542;32;20157;-95
2021/05/19 06:52:38;;;;;;;2.25;1.37;;;;;;;17.29;60.12;99281.94;4404022;32;20140;-96
2021/05/19 06:55:06;;;;;;;4.00;1.50;;;;;;;17.65;60.14;99279.41;4392082;32;20423;-95
2021/05/19 06:57:32;;;;;;;2.20;1.60;;;;;;;18.05;60.16;99274.91;4384463;32;20129;-94
2021/05/19 07:00:16;;;;;;;4.85;1.40;;;;;;;18.17;60.18;99274.97;4382802;32;20070;-96
2021/05/19 07:02:43;;;;;;;4.40;2.10;;;;;;;18.19;60.17;99266.00;4410722;32;20094;-95
2021/05/19 07:05:09;;;;;;;5.22;1.55;;;;;;;18.35;60.18;99263.97;4394445;32;20132;-96
2021/05/19 07:07:34;;;;;;;2.40;1.45;;;;;;;18.57;60.20;99258.00;4383355;32;20109;-96
2021/05/19 07:10:00;;;;;;;2.67;1.48;;;;;;;18.60;60.19;99262.22;4383343;32;20132;-95
2021/05/19 07:12:25;;;;;;;2.50;1.48;;;;;;;18.69;60.21;99259.78;4383452;32;20086;-93
2021/05/19 07:14:54;;;;;;;3.83;1.60;;;;;;;18.61;60.19;99254.19;4396053;32;20649;-94
2021/05/19 07:17:20;;;;;;;3.08;1.35;;;;;;;18.64;60.20;99259.25;4384693;32;20112;-94
2021/05/19 07:19:45;;;;;;;3.03;1.70;;;;;;;18.93;60.22;99258.94;4383006;32;20474;-96
2021/05/19 07:22:11;;;;;;;5.53;1.50;;;;;;;18.99;60.21;99253.19;4383105;32;20146;-95
2021/05/19 07:24:36;;;;;;;4.50;1.50;;;;;;;19.21;60.23;99255.91;4382645;32;20105;-96
2021/05/19 07:27:01;;;;;;;3.40;1.30;;;;;;;19.38;60.24;99249.34;4382784;32;20129;-94
2021/05/19 07:29:27;;;;;;;2.65;1.70;;;;;;;19.42;60.24;99245.53;4382394;32;20229;-94
2021/05/19 07:31:52;;;;;;;2.25;1.45;;;;;;;19.53;60.24;99242.06;4382429;32;20149;-95
2021/05/19 07:34:18;;;;;;;2.80;1.65;;;;;;;19.72;60.26;99244.16;4382714;32;20536;-94
2021/05/19 07:36:44;;;;;;;3.08;1.40;;;;;;;19.70;60.26;99241.63;4382531;32;20105;-94
2021/05/19 07:39:09;;;;;;;3.30;1.50;;;;;;;19.65;60.25;99237.69;4382360;32;20150;-93
2021/05/19 07:41:35;;;;;;;5.20;1.70;;;;;;;19.81;60.26;99232.88;4382498;32;20152;-94
2021/05/19 07:44:00;;;;;;;5.07;1.62;;;;;;;20.19;60.28;99232.50;4382344;32;20102;-95
2021/05/19 07:46:25;;;;;;;2.70;1.48;;;;;;;20.40;60.29;99230.81;4380976;32;22753;-94
2021/05/19 07:48:51;;;;;;;2.58;1.77;;;;;;;20.52;60.29;99227.16;4382015;32;20248;-96
2021/05/19 07:51:16;;;;;;;5.75;1.75;;;;;;;20.62;60.29;99235.19;4381940;32;20181;-94
2021/05/19 07:53:42;;;;;;;4.47;1.92;;;;;;;20.80;60.32;99227.53;4382677;32;20134;-95
2021/05/19 08:03:57;;;;;;;3.50;2.92;;;;;;;21.28;60.34;99224.44;4396630;32;20156;-94
2021/05/19 08:06:23;;;;;;;2.62;1.50;;;;;;;21.19;60.34;99233.97;4381108;32;25122;-94
2021/05/19 08:08:48;;;;;;;2.17;1.52;;;;;;;21.31;60.34;99226.84;4381671;32;20110;-95
2021/05/19 08:11:15;;;;;;;2.50;1.80;;;;;;;21.49;60.35;99227.06;4381929;32;20141;-95
2021/05/19 08:13:46;;;;;;;3.37;1.73;;;;;;;21.76;60.36;99216.75;4383110;32;20102;-95
2021/05/19 08:16:11;;;;;;;5.30;1.85;;;;;;;21.98;60.37;99221.88;4382552;32;20973;-93
2021/05/19 08:18:37;;;;;;;3.92;1.60;;;;;;;22.27;60.39;99214.06;4381773;32;24082;-94
2021/05/19 08:21:03;;;;;;;3.65;2.70;;;;;;;22.16;60.38;99210.66;4382200;32;20133;-95
2021/05/19 08:23:28;;;;;;;5.78;2.80;;;;;;;22.05;60.38;99207.16;4394665;32;20126;-95
2021/05/19 08:25:55;;;;;;;3.67;1.85;;;;;;;21.98;60.37;99207.78;4382340;32;20157;-95
2021/05/19 08:28:20;;;;;;;3.55;1.77;;;;;;;21.87;60.37;99206.09;4381794;32;20139;-94
2021/05/19 08:30:46;;;;;;;3.50;2.00;;;;;;;22.00;60.37;99204.06;4381932;32;20447;-93
2021/05/19 08:33:11;;;;;;;2.75;1.90;;;;;;;21.91;60.36;99207.50;4381578;32;20129;-93
2021/05/19 08:35:37;;;;;;;6.78;2.10;;;;;;;22.16;60.38;99210.66;4382586;32;20185;-95
2021/05/19 08:38:04;;;;;;;3.87;2.08;;;;;;;22.30;60.39;99211.13;4409184;32;20102;-94
2021/05/19 08:40:30;;;;;;;2.80;1.77;;;;;;;22.42;60.40;99206.53;4382332;32;20181;-96
2021/05/19 08:42:56;;;;;;;5.30;2.30;;;;;;;22.39;60.39;99200.66;4383552;32;20184;-95
2021/05/19 08:45:24;;;;;;;2.47;1.87;;;;;;;22.67;60.41;99197.19;4386481;32;20094;-94
2021/05/19 08:48:03;;;;;;;3.78;1.98;;;;;;;22.89;60.42;99188.97;4383821;32;20110;-95
2021/05/19 08:50:31;;;;;;;3.67;2.20;;;;;;;23.11;60.43;99187.84;4386023;32;20509;-96
2021/05/19 08:52:57;;;;;;;3.47;1.95;;;;;;;23.06;60.44;99189.25;4384781;32;20094;-96
2021/05/19 08:55:31;;;;;;;4.47;2.47;;;;;;;23.09;60.43;99183.66;4397935;32;20078;-96
2021/05/19 08:58:03;;;;;;;3.15;2.37;;;;;;;23.03;60.44;99190.38;4415331;32;20070;-96
2021/05/19 09:00:38;;;;;;;4.57;2.55;;;;;;;23.04;60.44;99176.13;4420803;32;20142;-96
2021/05/19 09:03:11;;;;;;;3.67;2.28;;;;;;;23.09;60.43;99179.19;4418418;32;20118;-96
2021/05/19 09:06:14;;;;;;;3.35;2.28;;;;;;;23.18;60.44;99185.44;4420824;32;20118;-96
2021/05/19 09:09:24;;;;;;;3.35;2.42;;;;;;;23.19;60.44;99180.03;4422189;32;20070;-96
2021/05/19 09:12:28;;;;;;;2.95;1.67;;;;;;;23.47;60.45;99172.97;4424782;32;20094;-96
2021/05/19 09:15:55;;;;;;;6.40;2.75;;;;;;;23.70;60.47;99168.16;4424742;32;20066;-96
2021/05/19 09:19:04;;;;;;;5.43;2.45;;;;;;;23.84;60.47;99172.97;4424233;32;20059;-96
2021/05/19 09:22:04;;;;;;;6.00;2.60;;;;;;;23.78;60.47;99164.75;4423763;32;20079;-96
2021/05/19 09:25:39;;;;;;;3.28;2.35;;;;;;;23.45;60.46;99174.09;4424818;32;20058;-96
2021/05/19 09:28:12;;;;;;;3.80;2.60;;;;;;;23.77;60.48;99171.03;4402813;32;20084;-96
2021/05/19 09:31:27;;;;;;;4.80;2.85;;;;;;;23.93;60.48;99165.09;4409788;32;20070;-96
2021/05/19 09:34:38;;;;;;;4.37;1.80;;;;;;;23.86;60.47;99168.31;4422729;32;20105;-96
2021/05/19 09:37:54;;;;;;;4.72;2.20;;;;;;;23.53;60.46;99174.19;4401251;32;20086;-96
2021/05/19 09:40:44;;;;;;;3.05;2.20;;;;;;;23.02;60.43;99167.47;4360748;32;20223;-96
2021/05/19 09:43:39;;;;;;;2.67;1.90;;;;;;;22.55;60.40;99177.94;4360961;32;20076;-95
2021/05/19 09:46:13;;;;;;;2.40;1.80;;;;;;;22.35;60.40;99170.94;4366104;32;20094;-96
2021/05/19 09:49:21;;;;;;;2.72;2.00;;;;;;;22.35;60.40;99171.78;4353832;32;20115;-96
2021/05/19 09:52:42;;;;;;;3.37;1.83;;;;;;;22.16;60.39;99169.09;4374198;32;20063;-96
2021/05/19 09:55:57;;;;;;;3.05;1.98;;;;;;;22.02;60.38;99169.47;4386005;32;20115;-96
2021/05/19 10:11:47;;;;;;;3.12;2.00;;;;;;;22.05;60.39;99155.97;4346183;33;20082;-96
2021/05/19 10:21:48;;;;;;;3.17;1.20;;;;;;;22.02;60.39;99143.78;4318346;33;20096;-96
2021/05/19 10:24:15;;;;;;;3.65;1.10;;;;;;;22.10;60.39;99142.28;4317230;33;20073;-96
2021/05/19 10:27:20;;;;;;;2.03;1.10;;;;;;;22.01;60.38;99142.13;4305592;33;20149;-96
2021/05/19 10:30:46;;;;;;;2.33;0.95;;;;;;;21.87;60.38;99139.00;4321972;33;20085;-96
2021/05/19 10:34:13;;;;;;;4.80;2.15;;;;;;;21.72;60.37;99143.81;4275057;33;20839;-96
2021/05/19 10:37:37;;;;;;;2.08;1.60;;;;;;;21.71;60.37;99140.34;4260613;33;20089;-96
2021/05/19 10:40:43;;;;;;;4.47;1.98;;;;;;;21.71;60.38;99136.84;4232479;33;20079;-96
2021/05/19 10:43:57;;;;;;;3.03;2.08;;;;;;;21.82;60.38;99126.16;4232693;33;20070;-96
2021/05/19 10:47:17;;;;;;;2.10;1.85;;;;;;;22.05;60.39;99132.94;4282439;33;20078;-96
2021/05/19 10:50:26;;;;;;;8.30;2.10;;;;;;;22.28;60.40;99124.75;4284376;33;20095;-96
2021/05/19 11:01:14;;;;;;;5.57;2.10;;;;;;;22.67;60.42;99112.31;4322768;33;20209;-93
2021/05/19 11:03:40;;;;;;;5.30;2.40;;;;;;;22.67;60.42;99109.66;4321822;33;20115;-92
2021/05/19 11:06:08;;;;;;;4.12;2.67;;;;;;;22.59;60.42;99112.19;4322117;33;20119;-94
2021/05/19 11:08:35;;;;;;;4.72;2.30;;;;;;;22.34;60.41;99117.06;4349684;32;20111;-94
2021/05/19 11:11:21;;;;;;;4.75;2.00;;;;;;;22.21;60.40;99116.47;4350774;32;20106;-95
2021/05/19 11:13:54;;;;;;;4.62;1.90;;;;;;;22.27;60.40;99118.59;4354649;32;20102;-94
2021/05/19 11:16:24;;;;;;;6.25;2.30;;;;;;;22.17;60.39;99111.59;4379615;32;20086;-95
2021/05/19 11:19:12;;;;;;;5.05;2.25;;;;;;;21.95;60.39;99102.06;4379949;32;20098;-94
2021/05/19 11:21:37;;;;;;;5.22;2.20;;;;;;;21.80;60.37;99104.28;4385392;32;20106;-95
2021/05/19 11:24:11;;;;;;;4.75;2.28;;;;;;;21.69;60.37;99107.00;4381848;32;20134;-94
2021/05/19 11:26:46;;;;;;;4.30;1.92;;;;;;;21.96;60.39;99106.38;4407076;32;20145;-95
2021/05/19 11:29:13;;;;;;;5.00;2.15;;;;;;;21.74;60.37;99097.69;4381672;32;20159;-95
2021/05/19 11:31:42;;;;;;;3.08;1.60;;;;;;;21.72;60.38;99098.78;4382118;32;20105;-94
2021/05/19 11:34:07;;;;;;;2.75;1.60;;;;;;;21.83;60.38;99105.81;4394780;32;20086;-93
2021/05/19 11:36:40;;;;;;;4.20;2.00;;;;;;;21.80;60.38;99096.31;4382239;32;20116;-93
2021/05/19 11:39:24;;;;;;;3.30;1.67;;;;;;;21.51;60.36;99106.81;4406979;32;20164;-94
2021/05/19 11:41:50;;;;;;;7.37;1.90;;;;;;;21.62;60.37;99104.06;4407079;32;20546;-94
2021/05/19 11:44:33;;;;;;;2.42;1.80;;;;;;;21.59;60.37;99106.16;4394100;32;20090;-94
2021/05/19 11:46:58;;;;;;;2.83;1.73;;;;;;;21.44;60.35;99109.16;4406650;32;20109;-93
2021/05/19 11:49:24;;;;;;;3.42;2.10;;;;;;;21.48;60.36;99108.87;4393637;32;20531;-94
2021/05/19 11:51:49;;;;;;;9.18;2.45;;;;;;;21.40;60.36;99114.88;4406402;32;20090;-93
2021/05/19 11:54:15;;;;;;;3.60;2.12;;;;;;;21.29;60.35;99113.12;4380931;32;20134;-93
2021/05/19 11:57:03;;;;;;;5.85;2.87;;;;;;;21.38;60.35;99122.09;4380140;32;20177;-94
2021/05/19 11:59:29;;;;;;;5.55;3.70;;;;;;;21.44;60.36;99132.16;4382706;32;20140;-96
2021/05/19 12:05:23;;;;;;;7.43;3.80;;;;;;;20.85;60.33;99124.84;4421239;32;20092;-96
2021/05/19 12:07:52;;;;;;;8.45;3.92;;;;;;;20.37;60.30;99135.88;4417391;32;20169;-96
2021/05/19 12:10:18;;;;;;;12.93;4.45;;;;;;;19.91;60.27;99146.69;4399836;32;20705;-96
2021/05/19 12:12:44;;;;;;;7.62;4.50;;;;;;;19.68;60.26;99152.94;4383030;32;20132;-95
2021/05/19 12:15:11;;;;;;;9.65;5.82;;;;;;;19.49;60.25;99158.78;4382331;32;20085;-95
2021/05/19 12:17:37;;;;;;;14.00;6.78;;;;;;;19.28;60.24;99166.56;4382705;32;20861;-95
2021/05/19 12:20:23;;;;;;;15.93;6.75;;;;;;;19.12;60.23;99163.41;4382820;32;21656;-96
2021/05/19 12:22:49;;;;;;;12.95;5.75;;;;;;;18.98;60.22;99169.75;4405328;32;20097;-96
2021/05/19 12:25:14;;;;;;;12.32;6.05;;;;;;;18.79;60.22;99177.37;4395438;32;20702;-95
2021/05/19 12:27:41;;;;;;;14.13;6.28;;;;;;;18.61;60.21;99177.75;4382978;32;20496;-96
2021/05/19 12:33:58;;;;;;;12.35;5.10;;;;;;;18.35;60.19;99195.47;4424112;32;20097;-96
2021/05/19 12:36:37;;;;;;;12.80;5.20;;;;;;;18.38;60.20;99189.12;4416153;32;20059;-96
2021/05/19 12:39:24;;;;;;;7.97;4.10;;;;;;;18.13;60.18;99192.69;4431736;27;20111;-96
2021/05/19 12:41:52;;;;;;;8.00;3.90;;;;;;;17.76;60.16;99207.66;4439476;32;20078;-94
2021/05/19 12:44:19;;;;;;;7.30;5.30;;;;;;;17.46;60.14;99221.09;4440816;32;20106;-93
2021/05/19 12:49:23;;;;;;;9.05;5.90;;;;;;;16.87;60.12;99237.34;4435556;32;20788;-96
2021/05/19 12:55:55;;;;;;;8.93;4.90;;;;;;;16.76;60.10;99234.56;4440329;32;20078;-93
2021/05/19 13:06:00;;;;;;;7.55;4.82;;;;;;;16.94;60.12;99222.00;4536381;27;20072;-96
2021/05/19 13:08:26;;;;;;;12.15;5.18;;;;;;;17.00;60.11;99212.84;4347698;33;20691;-96
2021/05/19 13:11:09;;;;;;;13.38;4.47;;;;;;;16.88;60.11;99204.84;4347829;33;20135;-96
2021/05/19 13:13:50;;;;;;;9.82;4.65;;;;;;;17.04;60.13;99209.09;4348327;33;20112;-96
2021/05/19 13:16:22;;;;;;;11.27;4.62;;;;;;;16.90;60.11;99201.28;4370757;32;20105;-96
2021/05/19 13:19:41;;;;;;;3.75;2.35;;;;;;;16.68;60.10;99202.69;4410783;32;20088;-96
2021/05/19 13:22:59;;;;;;;3.78;2.37;;;;;;;16.78;60.11;99203.75;4419675;32;20051;-95
2021/05/19 13:26:37;;;;;;;2.85;2.08;;;;;;;16.70;60.09;99202.56;4393005;32;20079;-95
2021/05/19 13:29:32;;;;;;;4.68;2.37;;;;;;;16.60;60.09;99210.19;4382885;32;20106;-96
2021/05/19 13:32:57;;;;;;;4.55;3.30;;;;;;;16.76;60.10;99210.91;4403628;32;20117;-96
2021/05/19 13:38:17;;;;;;;5.37;2.30;;;;;;;16.52;60.09;99210.69;4412030;32;20105;-96
2021/05/19 13:40:43;;;;;;;4.15;2.78;;;;;;;16.70;60.11;99199.94;4400780;32;20153;-96
2021/05/19 13:43:10;;;;;;;5.05;2.90;;;;;;;16.51;60.09;99200.28;4409787;32;20098;-96
2021/05/19 13:45:37;;;;;;;6.62;3.65;;;;;;;16.58;60.09;99191.91;4412061;32;20098;-94
2021/05/19 13:48:06;;;;;;;11.07;4.07;;;;;;;16.44;60.09;99191.97;4416250;32;20081;-96
2021/05/19 13:50:38;;;;;;;6.15;3.53;;;;;;;16.34;60.09;99192.66;4417102;32;20090;-96